createdAt,value
2018-08-22T00:00:28.556Z,99629.30
2018-08-22T00:00:59.664Z,99626.34
2018-08-22T00:01:30.799Z,99623.56
2018-08-22T00:02:01.938Z,99624.44
2018-08-22T00:02:33.044Z,99628.56
2018-08-22T00:03:04.160Z,99625.77
2018-08-22T00:03:35.272Z,99628.04
2018-08-22T00:04:06.380Z,99622.73
2018-08-22T00:04:37.486Z,99624.44
2018-08-22T00:05:08.592Z,99632.40
2018-08-22T00:05:39.745Z,99626.71
2018-08-22T00:06:10.914Z,99628.98
2018-08-22T00:06:42.047Z,99628.98
2018-08-22T00:07:13.156Z,99626.91
2018-08-22T00:07:44.272Z,99633.55
2018-08-22T00:08:15.384Z,99629.11
2018-08-22T00:08:46.538Z,99629.05
2018-08-22T00:09:17.655Z,99630.37
2018-08-22T00:09:48.799Z,99632.00
2018-08-22T00:10:19.914Z,99631.74
2018-08-22T00:10:51.023Z,99631.03
2018-08-22T00:11:22.131Z,99632.09
2018-08-22T00:11:53.280Z,99631.07
2018-08-22T00:12:24.400Z,99633.09
2018-08-22T00:12:55.516Z,99630.44
2018-08-22T00:13:26.623Z,99629.80
2018-08-22T00:13:57.791Z,99629.59
2018-08-22T00:14:28.904Z,99629.94
2018-08-22T00:15:00.051Z,99627.93
2018-08-22T00:15:31.152Z,99627.47
2018-08-22T00:16:02.256Z,99630.02
2018-08-22T00:16:33.375Z,99630.84
2018-08-22T00:17:04.525Z,99635.31
2018-08-22T00:17:35.641Z,99632.89
2018-08-22T00:18:06.749Z,99631.64
2018-08-22T00:18:37.860Z,99630.31
2018-08-22T00:19:08.980Z,99628.05
2018-08-22T00:19:40.099Z,99625.39
2018-08-22T00:20:11.224Z,99632.41
2018-08-22T00:20:42.377Z,99629.74
2018-08-22T00:21:13.497Z,99630.31
2018-08-22T00:21:44.636Z,99630.31
2018-08-22T00:22:15.744Z,99630.05
2018-08-22T00:22:46.858Z,99626.56
2018-08-22T00:23:17.980Z,99630.55
2018-08-22T00:23:49.091Z,99625.70
2018-08-22T00:24:20.200Z,99631.01
2018-08-22T00:24:51.352Z,99630.05
2018-08-22T00:25:22.484Z,99630.55
2018-08-22T00:25:53.615Z,99629.22
2018-08-22T00:26:24.719Z,99632.45
2018-08-22T00:26:55.920Z,99632.56
2018-08-22T00:27:27.002Z,99637.48
2018-08-22T00:27:58.159Z,99634.57
2018-08-22T00:28:29.271Z,99630.17
2018-08-22T00:29:00.397Z,99635.03
2018-08-22T00:29:31.511Z,99639.08
2018-08-22T00:30:02.634Z,99632.75
2018-08-22T00:30:34.464Z,99634.48
2018-08-22T00:31:05.579Z,99634.98
2018-08-22T00:31:36.697Z,99636.61
2018-08-22T00:32:07.857Z,99636.72
2018-08-22T00:32:38.964Z,99638.23
2018-08-22T00:33:10.096Z,99637.69
2018-08-22T00:33:41.209Z,99640.56
2018-08-22T00:34:12.319Z,99637.53
2018-08-22T00:34:43.424Z,99641.62
2018-08-22T00:35:14.533Z,99643.97
2018-08-22T00:35:45.652Z,99643.34
2018-08-22T00:36:16.765Z,99648.00
2018-08-22T00:36:47.881Z,99644.31
2018-08-22T00:37:19.032Z,99645.15
2018-08-22T00:37:50.152Z,99643.82
2018-08-22T00:38:21.261Z,99646.58
2018-08-22T00:38:52.376Z,99644.61
2018-08-22T00:39:23.480Z,99643.12
2018-08-22T00:39:54.610Z,99640.87
2018-08-22T00:40:25.724Z,99648.05
2018-08-22T00:40:56.831Z,99642.48
2018-08-22T00:41:27.954Z,99643.91
2018-08-22T00:41:59.059Z,99646.67
2018-08-22T00:42:30.201Z,99644.69
2018-08-22T00:43:01.317Z,99640.17
2018-08-22T00:43:32.435Z,99640.84
2018-08-22T00:44:03.560Z,99644.26
2018-08-22T00:44:34.668Z,99645.30
2018-08-22T00:45:05.793Z,99644.92
2018-08-22T00:45:37.482Z,99641.97
2018-08-22T00:46:08.608Z,99647.72
2018-08-22T00:46:39.732Z,99642.63
2018-08-22T00:47:10.844Z,99641.88
2018-08-22T00:47:42.078Z,99646.23
2018-08-22T00:48:13.285Z,99644.52
2018-08-22T00:48:44.448Z,99648.49
2018-08-22T00:49:15.624Z,99643.19
2018-08-22T00:49:46.741Z,99643.30
2018-08-22T00:50:17.860Z,99643.30
2018-08-22T00:50:48.970Z,99645.28
2018-08-22T00:51:20.089Z,99641.20
2018-08-22T00:51:51.208Z,99639.77
2018-08-22T00:52:22.322Z,99641.89
2018-08-22T00:52:53.440Z,99642.66
2018-08-22T00:53:24.608Z,99640.74
2018-08-22T00:53:55.715Z,99640.18
2018-08-22T00:54:26.874Z,99642.16
2018-08-22T00:54:58.107Z,99639.30
2018-08-22T00:55:29.289Z,99637.31
2018-08-22T00:56:00.416Z,99645.06
2018-08-22T00:56:31.528Z,99640.42
2018-08-22T00:57:02.707Z,99643.35
2018-08-22T00:57:33.816Z,99642.30
2018-08-22T00:58:05.048Z,99644.95
2018-08-22T00:58:36.208Z,99642.86
2018-08-22T00:59:07.436Z,99638.13
2018-08-22T00:59:38.677Z,99646.18
2018-08-22T01:00:09.800Z,99646.56
2018-08-22T01:00:40.956Z,99640.32
2018-08-22T01:01:12.189Z,99643.73
2018-08-22T01:01:43.424Z,99641.08
2018-08-22T01:02:14.549Z,99640.70
2018-08-22T01:02:45.722Z,99638.05
2018-08-22T01:03:16.881Z,99644.19
2018-08-22T01:03:48.064Z,99649.10
2018-08-22T01:04:19.291Z,99648.38
2018-08-22T01:04:50.473Z,99647.12
2018-08-22T01:05:21.693Z,99648.09
2018-08-22T01:05:52.905Z,99647.80
2018-08-22T01:06:24.024Z,99650.55
2018-08-22T01:06:55.200Z,99650.77
2018-08-22T01:07:26.317Z,99645.92
2018-08-22T01:07:57.541Z,99642.27
2018-08-22T01:08:28.660Z,99645.09
2018-08-22T01:08:59.777Z,99644.36
2018-08-22T01:09:30.956Z,99641.72
2018-08-22T01:10:02.144Z,99642.28
2018-08-22T01:10:33.261Z,99645.87
2018-08-22T01:11:04.472Z,99648.09
2018-08-22T01:11:35.592Z,99647.57
2018-08-22T01:12:06.825Z,99643.22
2018-08-22T01:12:38.013Z,99646.78
2018-08-22T01:13:09.182Z,99648.52
2018-08-22T01:13:40.300Z,99646.25
2018-08-22T01:14:11.464Z,99648.34
2018-08-22T01:14:42.635Z,99649.94
2018-08-22T01:15:13.869Z,99649.72
2018-08-22T01:15:45.055Z,99645.64
2018-08-22T01:16:16.256Z,99653.41
2018-08-22T01:16:47.485Z,99651.48
2018-08-22T01:17:18.650Z,99645.25
2018-08-22T01:17:49.885Z,99648.39
2018-08-22T01:18:21.001Z,99651.03
2018-08-22T01:18:52.169Z,99649.89
2018-08-22T01:19:23.296Z,99649.81
2018-08-22T01:19:54.473Z,99646.19
2018-08-22T01:20:25.578Z,99655.67
2018-08-22T01:20:56.692Z,99649.23
2018-08-22T01:21:27.799Z,99647.56
2018-08-22T01:21:58.968Z,99649.06
2018-08-22T01:22:30.251Z,99652.31
2018-08-22T01:23:01.403Z,99650.67
2018-08-22T01:23:32.571Z,99650.02
2018-08-22T01:24:03.801Z,99652.84
2018-08-22T01:24:35.030Z,99653.05
2018-08-22T01:25:06.151Z,99652.29
2018-08-22T01:25:37.321Z,99650.20
2018-08-22T01:26:08.613Z,99655.11
2018-08-22T01:26:39.853Z,99656.09
2018-08-22T01:27:10.988Z,99649.92
2018-08-22T01:27:42.200Z,99655.32
2018-08-22T01:28:13.386Z,99651.56
2018-08-22T01:28:44.516Z,99653.16
2018-08-22T01:29:15.636Z,99652.88
2018-08-22T01:29:46.856Z,99646.83
2018-08-22T01:30:17.979Z,99651.35
2018-08-22T01:30:49.104Z,99654.00
2018-08-22T01:31:20.338Z,99652.88
2018-08-22T01:31:51.512Z,99652.88
2018-08-22T01:32:22.746Z,99652.88
2018-08-22T01:32:53.914Z,99656.20
2018-08-22T01:33:25.100Z,99650.69
2018-08-22T01:33:56.317Z,99649.47
2018-08-22T01:34:27.500Z,99649.86
2018-08-22T01:34:58.742Z,99652.12
2018-08-22T01:35:29.955Z,99649.09
2018-08-22T01:36:01.205Z,99647.48
2018-08-22T01:36:32.328Z,99652.12
2018-08-22T01:37:03.451Z,99645.50
2018-08-22T01:37:34.569Z,99650.23
2018-08-22T01:38:05.791Z,99655.35
2018-08-22T01:38:36.971Z,99650.44
2018-08-22T01:39:08.090Z,99651.38
2018-08-22T01:39:39.365Z,99658.55
2018-08-22T01:40:10.492Z,99642.78
2018-08-22T01:40:41.619Z,99651.66
2018-08-22T01:41:12.749Z,99651.48
2018-08-22T01:41:43.864Z,99653.84
2018-08-22T01:42:15.039Z,99651.58
2018-08-22T01:42:46.162Z,99652.72
2018-08-22T01:43:17.293Z,99653.38
2018-08-22T01:43:48.479Z,99655.34
2018-08-22T01:44:19.600Z,99657.33
2018-08-22T01:44:50.772Z,99652.41
2018-08-22T01:45:21.959Z,99655.70
2018-08-22T01:45:53.128Z,99657.09
2018-08-22T01:46:24.316Z,99652.72
2018-08-22T01:46:55.494Z,99650.83
2018-08-22T01:47:26.671Z,99659.96
2018-08-22T01:47:57.792Z,99658.35
2018-08-22T01:48:28.911Z,99656.30
2018-08-22T01:49:00.032Z,99656.30
2018-08-22T01:49:31.236Z,99659.39
2018-08-22T01:50:02.407Z,99653.66
2018-08-22T01:50:33.606Z,99663.35
2018-08-22T01:51:04.783Z,99654.10
2018-08-22T01:51:35.966Z,99654.97
2018-08-22T01:52:07.156Z,99657.13
2018-08-22T01:52:38.275Z,99653.17
2018-08-22T01:53:09.391Z,99654.10
2018-08-22T01:53:40.617Z,99654.48
2018-08-22T01:54:11.958Z,99653.84
2018-08-22T01:54:43.126Z,99656.97
2018-08-22T01:55:14.300Z,99652.72
2018-08-22T01:55:45.418Z,99652.78
2018-08-22T01:56:16.528Z,99657.33
2018-08-22T01:56:47.771Z,99657.33
2018-08-22T01:57:19.013Z,99658.27
2018-08-22T01:57:50.132Z,99657.87
2018-08-22T01:58:21.356Z,99654.02
2018-08-22T01:58:52.705Z,99659.46
2018-08-22T01:59:23.856Z,99657.75
2018-08-22T01:59:55.034Z,99657.85
2018-08-22T02:00:26.159Z,99657.76
2018-08-22T02:00:57.285Z,99659.34
2018-08-22T02:01:28.463Z,99660.38
2018-08-22T02:01:59.589Z,99661.41
2018-08-22T02:02:30.729Z,99661.11
2018-08-22T02:03:01.901Z,99657.25
2018-08-22T02:03:33.117Z,99663.08
2018-08-22T02:04:04.244Z,99659.12
2018-08-22T02:04:35.475Z,99658.34
2018-08-22T02:05:06.598Z,99657.41
2018-08-22T02:05:37.707Z,99655.70
2018-08-22T02:06:08.922Z,99658.53
2018-08-22T02:06:40.039Z,99655.98
2018-08-22T02:07:11.246Z,99651.26
2018-08-22T02:07:42.425Z,99656.98
2018-08-22T02:08:13.543Z,99656.70
2018-08-22T02:08:44.773Z,99658.31
2018-08-22T02:09:15.889Z,99660.95
2018-08-22T02:09:47.128Z,99660.66
2018-08-22T02:10:18.242Z,99659.73
2018-08-22T02:10:49.383Z,99661.62
2018-08-22T02:11:20.599Z,99657.12
2018-08-22T02:11:51.708Z,99659.12
2018-08-22T02:12:22.831Z,99659.50
2018-08-22T02:12:54.000Z,99655.45
2018-08-22T02:13:25.115Z,99657.25
2018-08-22T02:13:56.281Z,99656.67
2018-08-22T02:14:27.427Z,99654.67
2018-08-22T02:14:58.598Z,99657.25
2018-08-22T02:15:29.723Z,99660.24
2018-08-22T02:16:00.986Z,99656.50
2018-08-22T02:16:32.176Z,99660.27
2018-08-22T02:17:03.299Z,99659.63
2018-08-22T02:17:34.457Z,99658.21
2018-08-22T02:18:05.567Z,99655.77
2018-08-22T02:18:36.685Z,99655.38
2018-08-22T02:19:07.792Z,99661.59
2018-08-22T02:19:38.968Z,99659.44
2018-08-22T02:20:10.191Z,99627.94
2018-08-22T02:20:41.300Z,99659.53
2018-08-22T02:21:12.475Z,99659.15
2018-08-22T02:21:43.598Z,99661.79
2018-08-22T02:22:14.771Z,99648.20
2018-08-22T02:22:46.018Z,99662.44
2018-08-22T02:23:17.204Z,99661.56
2018-08-22T02:23:48.381Z,99665.91
2018-08-22T02:24:19.601Z,99661.27
2018-08-22T02:24:50.764Z,99657.80
2018-08-22T02:25:21.881Z,99662.69
2018-08-22T02:25:53.059Z,99663.23
2018-08-22T02:26:24.176Z,99661.86
2018-08-22T02:26:55.285Z,99657.12
2018-08-22T02:27:26.395Z,99658.92
2018-08-22T02:27:57.674Z,99656.09
2018-08-22T02:28:28.832Z,99663.91
2018-08-22T02:28:59.953Z,99660.24
2018-08-22T02:29:31.136Z,99665.81
2018-08-22T02:30:02.300Z,99662.17
2018-08-22T02:30:33.453Z,99661.98
2018-08-22T02:31:04.569Z,99663.30
2018-08-22T02:31:35.686Z,99664.53
2018-08-22T02:32:06.910Z,99659.89
2018-08-22T02:32:38.141Z,99664.43
2018-08-22T02:33:09.293Z,99662.53
2018-08-22T02:33:40.417Z,99661.41
2018-08-22T02:34:11.532Z,99664.69
2018-08-22T02:34:42.703Z,99662.14
2018-08-22T02:35:13.832Z,99656.09
2018-08-22T02:35:45.044Z,99664.95
2018-08-22T02:36:16.163Z,99657.77
2018-08-22T02:36:47.389Z,99659.08
2018-08-22T02:37:18.606Z,99656.83
2018-08-22T02:37:49.783Z,99661.27
2018-08-22T02:38:21.037Z,99662.11
2018-08-22T02:38:52.229Z,99661.34
2018-08-22T02:39:23.401Z,99659.27
2018-08-22T02:39:54.517Z,99659.44
2018-08-22T02:40:25.692Z,99659.63
2018-08-22T02:40:56.856Z,99658.69
2018-08-22T02:41:27.975Z,99660.47
2018-08-22T02:41:59.146Z,99660.02
2018-08-22T02:42:30.333Z,99659.63
2018-08-22T02:43:01.451Z,99663.98
2018-08-22T02:43:32.588Z,99661.14
2018-08-22T02:44:03.748Z,99660.95
2018-08-22T02:44:34.930Z,99660.41
2018-08-22T02:45:06.054Z,99660.41
2018-08-22T02:45:37.235Z,99659.38
2018-08-22T02:46:08.465Z,99660.24
2018-08-22T02:46:39.653Z,99659.47
2018-08-22T02:47:10.771Z,99654.19
2018-08-22T02:47:41.949Z,99655.41
2018-08-22T02:48:13.059Z,99656.28
2018-08-22T02:48:44.240Z,99658.92
2018-08-22T02:49:15.404Z,99663.17
2018-08-22T02:49:46.578Z,99658.57
2018-08-22T02:50:17.758Z,99660.24
2018-08-22T02:50:48.875Z,99657.70
2018-08-22T02:51:20.087Z,99660.44
2018-08-22T02:51:51.207Z,99656.09
2018-08-22T02:52:22.380Z,99657.89
2018-08-22T02:52:53.496Z,99657.12
2018-08-22T02:53:24.608Z,99656.73
2018-08-22T02:53:55.792Z,99656.83
2018-08-22T02:54:26.972Z,99657.31
2018-08-22T02:54:58.138Z,99655.51
2018-08-22T02:55:29.309Z,99650.52
2018-08-22T02:56:00.523Z,99658.73
2018-08-22T02:56:31.715Z,99662.14
2018-08-22T02:57:02.831Z,99657.15
2018-08-22T02:57:34.048Z,99654.89
2018-08-22T02:58:05.220Z,99658.37
2018-08-22T02:58:36.333Z,99654.03
2018-08-22T02:59:07.452Z,99655.73
2018-08-22T02:59:38.572Z,99655.73
2018-08-22T03:00:09.752Z,99657.44
2018-08-22T03:00:40.980Z,99657.05
2018-08-22T03:01:12.109Z,99655.58
2018-08-22T03:01:43.250Z,99659.34
2018-08-22T03:02:14.375Z,99651.90
2018-08-22T03:02:45.584Z,99622.88
2018-08-22T03:03:16.717Z,99654.83
2018-08-22T03:03:47.829Z,99655.28
2018-08-22T03:04:18.943Z,99654.89
2018-08-22T03:04:50.108Z,99628.70
2018-08-22T03:05:21.232Z,99652.99
2018-08-22T03:05:52.401Z,99657.05
2018-08-22T03:06:23.582Z,99632.86
2018-08-22T03:06:54.805Z,99656.38
2018-08-22T03:07:25.968Z,99660.24
2018-08-22T03:07:57.092Z,99656.67
2018-08-22T03:08:28.269Z,99657.05
2018-08-22T03:08:59.392Z,99658.37
2018-08-22T03:09:30.568Z,99657.60
2018-08-22T03:10:01.713Z,99660.34
2018-08-22T03:10:32.836Z,99655.55
2018-08-22T03:11:03.959Z,99654.28
2018-08-22T03:11:35.165Z,99663.08
2018-08-22T03:12:06.297Z,99660.73
2018-08-22T03:12:37.424Z,99659.12
2018-08-22T03:13:08.592Z,99657.41
2018-08-22T03:13:39.704Z,99657.12
2018-08-22T03:14:10.864Z,99656.34
2018-08-22T03:14:42.056Z,99661.17
2018-08-22T03:15:13.178Z,99661.38
2018-08-22T03:15:44.392Z,99663.17
2018-08-22T03:16:15.537Z,99661.62
2018-08-22T03:16:46.744Z,99661.72
2018-08-22T03:17:17.899Z,99665.39
2018-08-22T03:17:49.018Z,99668.13
2018-08-22T03:18:20.156Z,99669.84
2018-08-22T03:18:51.322Z,99663.30
2018-08-22T03:19:22.431Z,99661.14
2018-08-22T03:19:53.622Z,99662.37
2018-08-22T03:20:24.780Z,99662.37
2018-08-22T03:20:55.992Z,99664.55
2018-08-22T03:21:27.111Z,99662.27
2018-08-22T03:21:58.224Z,99668.17
2018-08-22T03:22:29.384Z,99661.27
2018-08-22T03:23:00.507Z,99659.80
2018-08-22T03:23:31.776Z,99663.27
2018-08-22T03:24:02.909Z,99668.39
2018-08-22T03:24:34.083Z,99665.17
2018-08-22T03:25:05.284Z,99667.66
2018-08-22T03:25:36.529Z,99667.55
2018-08-22T03:26:07.761Z,99666.52
2018-08-22T03:26:38.904Z,99667.84
2018-08-22T03:27:10.120Z,99665.69
2018-08-22T03:27:41.300Z,99664.91
2018-08-22T03:28:12.538Z,99668.88
2018-08-22T03:28:43.651Z,99668.49
2018-08-22T03:29:14.877Z,99668.20
2018-08-22T03:29:46.000Z,99670.45
2018-08-22T03:30:17.123Z,99670.10
2018-08-22T03:30:48.242Z,99673.00
2018-08-22T03:31:19.410Z,99674.48
2018-08-22T03:31:50.529Z,99674.29
2018-08-22T03:32:21.687Z,99669.65
2018-08-22T03:32:52.818Z,99669.45
2018-08-22T03:33:23.944Z,99675.95
2018-08-22T03:33:55.058Z,99675.95
2018-08-22T03:34:26.249Z,99669.36
2018-08-22T03:34:57.432Z,99676.25
2018-08-22T03:35:28.597Z,99672.77
2018-08-22T03:35:59.815Z,99674.55
2018-08-22T03:36:30.925Z,99674.77
2018-08-22T03:37:02.047Z,99676.38
2018-08-22T03:37:33.279Z,99677.61
2018-08-22T03:38:04.392Z,99679.70
2018-08-22T03:38:35.556Z,99681.37
2018-08-22T03:39:06.737Z,99674.61
2018-08-22T03:39:37.912Z,99674.06
2018-08-22T03:40:09.088Z,99681.51
2018-08-22T03:40:40.257Z,99678.38
2018-08-22T03:41:11.443Z,99674.06
2018-08-22T03:41:42.559Z,99678.38
2018-08-22T03:42:13.732Z,99680.09
2018-08-22T03:42:44.883Z,99676.61
2018-08-22T03:43:15.997Z,99680.09
2018-08-22T03:43:47.128Z,99678.22
2018-08-22T03:44:18.356Z,99679.93
2018-08-22T03:44:49.528Z,99679.54
2018-08-22T03:45:20.736Z,99682.09
2018-08-22T03:45:51.912Z,99683.31
2018-08-22T03:46:23.044Z,99686.24
2018-08-22T03:46:54.201Z,99685.89
2018-08-22T03:47:25.328Z,99690.20
2018-08-22T03:47:56.447Z,99688.82
2018-08-22T03:48:27.620Z,99686.08
2018-08-22T03:48:58.984Z,99687.30
2018-08-22T03:49:30.157Z,99689.78
2018-08-22T03:50:01.452Z,99691.40
2018-08-22T03:50:32.564Z,99691.48
2018-08-22T03:51:03.811Z,99688.97
2018-08-22T03:51:34.957Z,99694.34
2018-08-22T03:52:06.124Z,99697.95
2018-08-22T03:52:37.248Z,99694.20
2018-08-22T03:53:08.367Z,99699.33
2018-08-22T03:53:39.590Z,99702.45
2018-08-22T03:54:10.721Z,99698.31
2018-08-22T03:54:41.945Z,99698.05
2018-08-22T03:55:13.068Z,99695.75
2018-08-22T03:55:44.191Z,99700.11
2018-08-22T03:56:15.297Z,99697.95
2018-08-22T03:56:46.407Z,99691.23
2018-08-22T03:57:17.529Z,99692.94
2018-08-22T03:57:48.701Z,99690.68
2018-08-22T03:58:19.856Z,99689.75
2018-08-22T03:58:51.012Z,99691.25
2018-08-22T03:59:22.173Z,99689.55
2018-08-22T03:59:53.292Z,99686.92
2018-08-22T04:00:24.468Z,99688.60
2018-08-22T04:00:55.634Z,99689.83
2018-08-22T04:01:26.818Z,99682.66
2018-08-22T04:01:58.012Z,99686.53
2018-08-22T04:02:29.125Z,99689.06
2018-08-22T04:03:00.293Z,99691.05
2018-08-22T04:03:31.408Z,99687.63
2018-08-22T04:04:02.614Z,99697.11
2018-08-22T04:04:33.788Z,99691.42
2018-08-22T04:05:04.935Z,99697.25
2018-08-22T04:05:36.112Z,99687.33
2018-08-22T04:06:07.228Z,99690.42
2018-08-22T04:06:38.341Z,99692.02
2018-08-22T04:07:09.517Z,99699.13
2018-08-22T04:07:40.717Z,99690.70
2018-08-22T04:08:11.892Z,99694.06
2018-08-22T04:08:43.061Z,99691.69
2018-08-22T04:09:14.188Z,99692.74
2018-08-22T04:09:45.453Z,99698.88
2018-08-22T04:10:16.659Z,99700.97
2018-08-22T04:10:47.853Z,99699.09
2018-08-22T04:11:19.032Z,99696.79
2018-08-22T04:11:50.266Z,99698.48
2018-08-22T04:12:21.388Z,99697.91
2018-08-22T04:12:52.630Z,99702.09
2018-08-22T04:13:23.812Z,99697.72
2018-08-22T04:13:54.935Z,99697.57
2018-08-22T04:14:26.048Z,99700.94
2018-08-22T04:14:57.272Z,99702.27
2018-08-22T04:15:28.461Z,99711.30
2018-08-22T04:15:59.644Z,99704.19
2018-08-22T04:16:30.808Z,99703.23
2018-08-22T04:17:01.948Z,99704.89
2018-08-22T04:17:33.055Z,99705.60
2018-08-22T04:18:04.171Z,99704.98
2018-08-22T04:18:35.284Z,99709.38
2018-08-22T04:19:06.396Z,99707.09
2018-08-22T04:19:37.499Z,99703.58
2018-08-22T04:20:08.644Z,99706.89
2018-08-22T04:20:39.763Z,99706.05
2018-08-22T04:21:10.880Z,99700.98
2018-08-22T04:21:42.096Z,99706.98
2018-08-22T04:22:13.342Z,99709.90
2018-08-22T04:22:44.528Z,99703.91
2018-08-22T04:23:15.644Z,99704.30
2018-08-22T04:23:46.876Z,99704.51
2018-08-22T04:24:17.996Z,99703.16
2018-08-22T04:24:49.222Z,99700.64
2018-08-22T04:25:20.380Z,99703.78
2018-08-22T04:25:51.507Z,99709.20
2018-08-22T04:26:22.629Z,99703.30
2018-08-22T04:26:53.748Z,99703.22
2018-08-22T04:27:24.917Z,99704.81
2018-08-22T04:27:56.040Z,99711.13
2018-08-22T04:28:27.260Z,99707.83
2018-08-22T04:28:58.389Z,99699.16
2018-08-22T04:29:29.503Z,99703.18
2018-08-22T04:30:00.725Z,99698.50
2018-08-22T04:30:31.907Z,99702.98
2018-08-22T04:31:03.140Z,99707.56
2018-08-22T04:31:34.335Z,99703.57
2018-08-22T04:32:05.510Z,99707.60
2018-08-22T04:32:36.756Z,99708.33
2018-08-22T04:33:07.886Z,99703.52
2018-08-22T04:33:39.117Z,99707.88
2018-08-22T04:34:10.312Z,99709.94
2018-08-22T04:34:41.416Z,99712.13
2018-08-22T04:36:00.768Z,99710.87
2018-08-22T04:36:31.939Z,99717.91
2018-08-22T04:37:03.110Z,99716.92
2018-08-22T04:37:34.230Z,99713.66
2018-08-22T04:38:05.407Z,99716.89
2018-08-22T04:38:36.518Z,99716.02
2018-08-22T04:39:07.686Z,99717.55
2018-08-22T04:39:38.857Z,99714.73
2018-08-22T04:40:10.147Z,99719.06
2018-08-22T04:40:41.330Z,99716.73
2018-08-22T04:41:12.517Z,99715.53
2018-08-22T04:41:43.643Z,99720.58
2018-08-22T04:42:14.868Z,99719.11
2018-08-22T04:42:46.066Z,99720.23
2018-08-22T04:43:17.185Z,99722.16
2018-08-22T04:43:48.421Z,99724.53
2018-08-22T04:44:19.606Z,99721.70
2018-08-22T04:44:50.836Z,99721.11
2018-08-22T04:45:22.078Z,99711.66
2018-08-22T04:45:53.293Z,99716.22
2018-08-22T04:46:24.484Z,99714.63
2018-08-22T04:46:55.661Z,99721.97
2018-08-22T04:47:26.793Z,99716.29
2018-08-22T04:47:57.916Z,99716.02
2018-08-22T04:48:29.075Z,99715.83
2018-08-22T04:49:00.247Z,99713.86
2018-08-22T04:49:31.379Z,99724.09
2018-08-22T04:50:02.501Z,99720.50
2018-08-22T04:50:33.682Z,99719.08
2018-08-22T04:51:04.920Z,99720.63
2018-08-22T04:51:36.082Z,99721.00
2018-08-22T04:52:07.257Z,99721.49
2018-08-22T04:52:38.379Z,99719.53
2018-08-22T04:53:09.600Z,99717.48
2018-08-22T04:53:40.734Z,99720.20
2018-08-22T04:54:11.965Z,99718.50
2018-08-22T04:54:43.088Z,99720.52
2018-08-22T04:55:14.293Z,99721.66
2018-08-22T04:55:45.435Z,99714.69
2018-08-22T04:56:16.646Z,99712.06
2018-08-22T04:56:47.780Z,99717.63
2018-08-22T04:57:18.906Z,99716.42
2018-08-22T04:57:50.025Z,99716.33
2018-08-22T04:58:21.204Z,99722.53
2018-08-22T04:58:52.380Z,99721.95
2018-08-22T04:59:23.551Z,99717.83
2018-08-22T04:59:54.689Z,99719.00
2018-08-22T05:00:25.925Z,99718.48
2018-08-22T05:00:57.104Z,99722.80
2018-08-22T05:01:28.337Z,99721.14
2018-08-22T05:01:59.452Z,99721.20
2018-08-22T05:02:30.573Z,99720.31
2018-08-22T05:03:01.699Z,99717.73
2018-08-22T05:03:32.867Z,99721.09
2018-08-22T05:04:04.008Z,99724.41
2018-08-22T05:04:35.184Z,99718.96
2018-08-22T05:05:06.373Z,99728.00
2018-08-22T05:05:37.554Z,99726.66
2018-08-22T05:06:08.756Z,99720.77
2018-08-22T05:06:40.044Z,99726.65
2018-08-22T05:07:11.228Z,99726.69
2018-08-22T05:07:42.348Z,99720.77
2018-08-22T05:08:13.534Z,99726.09
2018-08-22T05:08:44.714Z,99724.44
2018-08-22T05:09:15.885Z,99719.19
2018-08-22T05:09:47.008Z,99723.25
2018-08-22T05:10:18.191Z,99721.64
2018-08-22T05:10:49.359Z,99723.62
2018-08-22T05:11:20.555Z,99721.80
2018-08-22T05:11:51.796Z,99724.96
2018-08-22T05:12:22.920Z,99722.28
2018-08-22T05:12:54.062Z,99721.29
2018-08-22T05:13:25.188Z,99715.12
2018-08-22T05:13:56.413Z,99722.09
2018-08-22T05:14:27.545Z,99722.23
2018-08-22T05:14:58.728Z,99722.09
2018-08-22T05:15:29.924Z,99719.17
2018-08-22T05:16:01.044Z,99722.36
2018-08-22T05:16:32.273Z,99716.67
2018-08-22T05:17:03.425Z,99723.60
2018-08-22T05:17:34.535Z,99722.09
2018-08-22T05:18:05.711Z,99720.64
2018-08-22T05:18:36.842Z,99719.14
2018-08-22T05:19:08.013Z,99722.12
2018-08-22T05:19:39.149Z,99722.23
2018-08-22T05:20:10.336Z,99719.70
2018-08-22T05:20:41.443Z,99722.83
2018-08-22T05:21:12.570Z,99722.39
2018-08-22T05:21:43.683Z,99723.53
2018-08-22T05:22:14.900Z,99724.16
2018-08-22T05:22:46.801Z,99729.67
2018-08-22T05:23:17.973Z,99726.75
2018-08-22T05:23:49.107Z,99728.02
2018-08-22T05:24:20.345Z,99722.47
2018-08-22T05:24:51.613Z,99731.30
2018-08-22T05:25:22.693Z,99726.80
2018-08-22T05:25:53.877Z,99728.56
2018-08-22T05:26:25.005Z,99724.36
2018-08-22T05:26:56.144Z,99723.97
2018-08-22T05:27:27.373Z,99723.53
2018-08-22T05:27:58.630Z,99727.25
2018-08-22T05:28:29.810Z,99722.43
2018-08-22T05:29:00.935Z,99726.89
2018-08-22T05:29:32.114Z,99723.89
2018-08-22T05:30:03.307Z,99719.58
2018-08-22T05:30:34.459Z,99727.98
2018-08-22T05:31:05.629Z,99716.54
2018-08-22T05:31:36.814Z,99716.70
2018-08-22T05:32:08.067Z,99715.75
2018-08-22T05:32:39.265Z,99721.36
2018-08-22T05:33:10.496Z,99720.58
2018-08-22T05:33:41.689Z,99721.48
2018-08-22T05:34:12.872Z,99724.91
2018-08-22T05:34:44.048Z,99724.00
2018-08-22T05:35:15.183Z,99725.27
2018-08-22T05:35:46.316Z,99719.17
2018-08-22T05:36:17.493Z,99726.73
2018-08-22T05:36:48.712Z,99727.66
2018-08-22T05:37:19.828Z,99729.55
2018-08-22T05:37:50.968Z,99724.11
2018-08-22T05:38:22.128Z,99729.91
2018-08-22T05:38:53.365Z,99728.02
2018-08-22T05:39:24.480Z,99724.09
2018-08-22T05:39:55.711Z,99726.31
2018-08-22T05:40:26.835Z,99724.30
2018-08-22T05:40:57.952Z,99722.41
2018-08-22T05:41:29.177Z,99728.07
2018-08-22T05:42:00.306Z,99723.18
2018-08-22T05:42:31.515Z,99727.53
2018-08-22T05:43:02.642Z,99721.55
2018-08-22T05:43:33.752Z,99727.67
2018-08-22T05:44:04.989Z,99727.55
2018-08-22T05:44:36.176Z,99728.50
2018-08-22T05:45:07.378Z,99723.17
2018-08-22T05:45:38.545Z,99717.89
2018-08-22T05:46:09.782Z,99725.54
2018-08-22T05:46:40.911Z,99714.38
2018-08-22T05:47:12.136Z,99724.05
2018-08-22T05:47:43.405Z,99720.56
2018-08-22T05:48:14.584Z,99720.41
2018-08-22T05:48:45.691Z,99726.13
2018-08-22T05:49:16.899Z,99727.67
2018-08-22T05:49:47.965Z,99722.70
2018-08-22T05:50:19.083Z,99722.86
2018-08-22T05:50:50.264Z,99720.20
2018-08-22T05:51:21.440Z,99726.70
2018-08-22T05:51:52.612Z,99724.77
2018-08-22T05:52:23.786Z,99723.02
2018-08-22T05:52:54.968Z,99728.61
2018-08-22T05:53:26.198Z,99723.05
2018-08-22T05:53:57.322Z,99726.50
2018-08-22T05:54:28.453Z,99722.99
2018-08-22T05:54:59.612Z,99724.69
2018-08-22T05:55:31.261Z,99724.28
2018-08-22T05:56:02.581Z,99723.00
2018-08-22T05:56:33.772Z,99726.81
2018-08-22T05:57:05.001Z,99726.81
2018-08-22T05:57:36.221Z,99721.80
2018-08-22T05:58:07.417Z,99725.83
2018-08-22T05:58:38.531Z,99726.39
2018-08-22T05:59:09.651Z,99723.20
2018-08-22T05:59:40.764Z,99717.79
2018-08-22T06:00:11.945Z,99723.72
2018-08-22T06:00:43.077Z,99724.42
2018-08-22T06:01:14.199Z,99726.95
2018-08-22T06:01:45.372Z,99727.79
2018-08-22T06:02:16.553Z,99728.86
2018-08-22T06:02:47.780Z,99730.47
2018-08-22T06:03:18.903Z,99731.19
2018-08-22T06:03:50.037Z,99724.84
2018-08-22T06:04:21.241Z,99725.20
2018-08-22T06:04:52.481Z,99720.11
2018-08-22T06:05:23.604Z,99723.20
2018-08-22T06:05:54.757Z,99722.84
2018-08-22T06:06:25.936Z,99721.45
2018-08-22T06:06:57.105Z,99719.54